sensor_id;sensor_type;location;lat;lon;timestamp;P1;durP1;ratioP1;P2;durP2;ratioP2
9270;SDS011;4673;53.458;9.940;2024-02-26T00:00:34;4.77;;;4.77;;
9270;SDS011;4673;53.458;9.940;2024-02-26T00:03:00;5.10;;;5.10;;
9270;SDS011;4673;53.458;9.940;2024-02-26T00:05:26;5.73;;;5.73;;
9270;SDS011;4673;53.458;9.940;2024-02-26T00:07:52;4.77;;;4.77;;
9270;SDS011;4673;53.458;9.940;2024-02-26T00:10:17;5.33;;;5.33;;
9270;SDS011;4673;53.458;9.940;2024-02-26T00:12:43;5.13;;;5.13;;
9270;SDS011;4673;53.458;9.940;2024-02-26T00:15:09;5.37;;;5.37;;
9270;SDS011;4673;53.458;9.940;2024-02-26T00:17:35;4.40;;;4.40;;
9270;SDS011;4673;53.458;9.940;2024-02-26T00:20:04;4.80;;;4.80;;
9270;SDS011;4673;53.458;9.940;2024-02-26T00:22:33;5.10;;;5.10;;
9270;SDS011;4673;53.458;9.940;2024-02-26T00:24:59;4.53;;;4.53;;
9270;SDS011;4673;53.458;9.940;2024-02-26T00:27:25;4.37;;;4.37;;
9270;SDS011;4673;53.458;9.940;2024-02-26T00:29:51;3.97;;;3.97;;
9270;SDS011;4673;53.458;9.940;2024-02-26T00:32:16;4.33;;;4.33;;
9270;SDS011;4673;53.458;9.940;2024-02-26T00:34:42;4.73;;;4.73;;
9270;SDS011;4673;53.458;9.940;2024-02-26T00:37:07;4.37;;;4.37;;
9270;SDS011;4673;53.458;9.940;2024-02-26T00:39:33;4.37;;;4.37;;
9270;SDS011;4673;53.458;9.940;2024-02-26T00:41:59;4.67;;;4.67;;
9270;SDS011;4673;53.458;9.940;2024-02-26T00:44:24;4.27;;;4.27;;
9270;SDS011;4673;53.458;9.940;2024-02-26T00:46:50;4.37;;;4.37;;
9270;SDS011;4673;53.458;9.940;2024-02-26T00:49:16;3.60;;;3.60;;
9270;SDS011;4673;53.458;9.940;2024-02-26T00:51:41;4.50;;;4.50;;
9270;SDS011;4673;53.458;9.940;2024-02-26T00:54:07;4.47;;;4.47;;
9270;SDS011;4673;53.458;9.940;2024-02-26T00:56:33;3.70;;;3.70;;
9270;SDS011;4673;53.458;9.940;2024-02-26T00:58:58;4.67;;;4.67;;
9270;SDS011;4673;53.458;9.940;2024-02-26T01:01:24;4.00;;;4.00;;
9270;SDS011;4673;53.458;9.940;2024-02-26T01:03:50;4.37;;;4.37;;
9270;SDS011;4673;53.458;9.940;2024-02-26T01:06:15;3.97;;;3.97;;
9270;SDS011;4673;53.458;9.940;2024-02-26T01:08:41;4.60;;;4.60;;
9270;SDS011;4673;53.458;9.940;2024-02-26T01:11:07;4.50;;;4.50;;
9270;SDS011;4673;53.458;9.940;2024-02-26T01:13:34;4.53;;;4.53;;
9270;SDS011;4673;53.458;9.940;2024-02-26T01:15:59;3.77;;;3.77;;
9270;SDS011;4673;53.458;9.940;2024-02-26T01:18:26;4.60;;;4.60;;
9270;SDS011;4673;53.458;9.940;2024-02-26T01:20:52;4.17;;;4.17;;
9270;SDS011;4673;53.458;9.940;2024-02-26T01:23:19;4.03;;;4.03;;
9270;SDS011;4673;53.458;9.940;2024-02-26T01:25:45;4.87;;;4.87;;
9270;SDS011;4673;53.458;9.940;2024-02-26T01:28:11;4.30;;;4.30;;
9270;SDS011;4673;53.458;9.940;2024-02-26T01:30:36;4.50;;;4.50;;
9270;SDS011;4673;53.458;9.940;2024-02-26T01:33:02;4.43;;;4.43;;
9270;SDS011;4673;53.458;9.940;2024-02-26T01:35:28;4.60;;;4.60;;
9270;SDS011;4673;53.458;9.940;2024-02-26T01:37:54;4.70;;;4.70;;
9270;SDS011;4673;53.458;9.940;2024-02-26T01:40:26;4.77;;;4.77;;
9270;SDS011;4673;53.458;9.940;2024-02-26T01:42:52;5.03;;;5.03;;
9270;SDS011;4673;53.458;9.940;2024-02-26T01:45:18;4.77;;;4.77;;
9270;SDS011;4673;53.458;9.940;2024-02-26T01:47:50;4.23;;;4.23;;
9270;SDS011;4673;53.458;9.940;2024-02-26T01:50:17;4.77;;;4.77;;
9270;SDS011;4673;53.458;9.940;2024-02-26T01:52:44;5.07;;;5.07;;
9270;SDS011;4673;53.458;9.940;2024-02-26T01:55:11;5.50;;;5.50;;
9270;SDS011;4673;53.458;9.940;2024-02-26T01:57:39;4.57;;;4.57;;
9270;SDS011;4673;53.458;9.940;2024-02-26T02:00:08;5.33;;;5.33;;
9270;SDS011;4673;53.458;9.940;2024-02-26T02:02:35;5.50;;;5.50;;
9270;SDS011;4673;53.458;9.940;2024-02-26T02:05:01;4.80;;;4.80;;
9270;SDS011;4673;53.458;9.940;2024-02-26T02:07:27;4.63;;;4.63;;
9270;SDS011;4673;53.458;9.940;2024-02-26T02:09:54;4.60;;;4.60;;
9270;SDS011;4673;53.458;9.940;2024-02-26T02:12:19;5.03;;;5.03;;
9270;SDS011;4673;53.458;9.940;2024-02-26T02:14:46;5.20;;;5.20;;
9270;SDS011;4673;53.458;9.940;2024-02-26T02:17:12;5.20;;;5.20;;
9270;SDS011;4673;53.458;9.940;2024-02-26T02:19:37;5.73;;;5.73;;
9270;SDS011;4673;53.458;9.940;2024-02-26T02:22:03;5.73;;;5.73;;
9270;SDS011;4673;53.458;9.940;2024-02-26T02:24:29;5.67;;;5.67;;
9270;SDS011;4673;53.458;9.940;2024-02-26T02:26:55;5.83;;;5.83;;
9270;SDS011;4673;53.458;9.940;2024-02-26T02:29:21;6.20;;;6.20;;
9270;SDS011;4673;53.458;9.940;2024-02-26T02:31:46;5.30;;;5.30;;
9270;SDS011;4673;53.458;9.940;2024-02-26T02:34:12;5.73;;;5.73;;
9270;SDS011;4673;53.458;9.940;2024-02-26T02:36:52;5.80;;;5.80;;
9270;SDS011;4673;53.458;9.940;2024-02-26T02:39:18;6.03;;;6.03;;
9270;SDS011;4673;53.458;9.940;2024-02-26T02:41:43;5.57;;;5.57;;
9270;SDS011;4673;53.458;9.940;2024-02-26T02:44:09;5.53;;;5.53;;
9270;SDS011;4673;53.458;9.940;2024-02-26T02:46:35;5.27;;;5.27;;
9270;SDS011;4673;53.458;9.940;2024-02-26T02:49:01;6.43;;;6.43;;
9270;SDS011;4673;53.458;9.940;2024-02-26T02:51:26;5.43;;;5.43;;
9270;SDS011;4673;53.458;9.940;2024-02-26T02:53:52;5.57;;;5.57;;
9270;SDS011;4673;53.458;9.940;2024-02-26T02:56:18;6.90;;;6.90;;
9270;SDS011;4673;53.458;9.940;2024-02-26T02:58:44;6.00;;;6.00;;
9270;SDS011;4673;53.458;9.940;2024-02-26T03:01:09;8.53;;;8.53;;
9270;SDS011;4673;53.458;9.940;2024-02-26T03:03:35;7.90;;;7.90;;
9270;SDS011;4673;53.458;9.940;2024-02-26T03:06:02;7.07;;;7.07;;
9270;SDS011;4673;53.458;9.940;2024-02-26T03:08:28;7.80;;;7.80;;
9270;SDS011;4673;53.458;9.940;2024-02-26T03:10:54;6.77;;;6.77;;
9270;SDS011;4673;53.458;9.940;2024-02-26T03:13:19;7.73;;;7.73;;
9270;SDS011;4673;53.458;9.940;2024-02-26T03:15:45;7.00;;;7.00;;
9270;SDS011;4673;53.458;9.940;2024-02-26T03:18:11;7.33;;;7.33;;
9270;SDS011;4673;53.458;9.940;2024-02-26T03:20:36;6.53;;;6.53;;
9270;SDS011;4673;53.458;9.940;2024-02-26T03:23:02;6.73;;;6.73;;
9270;SDS011;4673;53.458;9.940;2024-02-26T03:25:28;7.77;;;7.77;;
9270;SDS011;4673;53.458;9.940;2024-02-26T03:27:54;6.70;;;6.70;;
9270;SDS011;4673;53.458;9.940;2024-02-26T03:30:19;6.37;;;6.37;;
9270;SDS011;4673;53.458;9.940;2024-02-26T03:32:45;5.77;;;5.77;;
9270;SDS011;4673;53.458;9.940;2024-02-26T03:35:12;6.03;;;6.03;;
9270;SDS011;4673;53.458;9.940;2024-02-26T03:37:37;6.97;;;6.97;;
9270;SDS011;4673;53.458;9.940;2024-02-26T03:40:03;7.53;;;7.53;;
9270;SDS011;4673;53.458;9.940;2024-02-26T03:42:30;7.07;;;7.07;;
9270;SDS011;4673;53.458;9.940;2024-02-26T03:44:55;7.03;;;7.03;;
9270;SDS011;4673;53.458;9.940;2024-02-26T03:47:21;7.00;;;7.00;;
9270;SDS011;4673;53.458;9.940;2024-02-26T03:49:46;7.37;;;7.37;;
9270;SDS011;4673;53.458;9.940;2024-02-26T03:52:12;6.90;;;6.90;;
9270;SDS011;4673;53.458;9.940;2024-02-26T03:54:38;7.10;;;7.10;;
9270;SDS011;4673;53.458;9.940;2024-02-26T03:57:04;7.30;;;7.30;;
9270;SDS011;4673;53.458;9.940;2024-02-26T03:59:29;7.63;;;7.63;;
9270;SDS011;4673;53.458;9.940;2024-02-26T04:01:55;6.60;;;6.60;;
9270;SDS011;4673;53.458;9.940;2024-02-26T04:04:21;7.00;;;7.00;;
9270;SDS011;4673;53.458;9.940;2024-02-26T04:06:46;7.80;;;7.80;;
9270;SDS011;4673;53.458;9.940;2024-02-26T04:09:13;8.00;;;8.00;;
9270;SDS011;4673;53.458;9.940;2024-02-26T04:11:39;7.67;;;7.67;;
9270;SDS011;4673;53.458;9.940;2024-02-26T04:14:05;8.23;;;8.23;;
9270;SDS011;4673;53.458;9.940;2024-02-26T04:16:33;7.60;;;7.60;;
9270;SDS011;4673;53.458;9.940;2024-02-26T04:19:02;9.33;;;9.23;;
9270;SDS011;4673;53.458;9.940;2024-02-26T04:21:28;9.27;;;9.27;;
9270;SDS011;4673;53.458;9.940;2024-02-26T04:23:53;9.67;;;9.67;;
9270;SDS011;4673;53.458;9.940;2024-02-26T04:26:21;8.77;;;8.77;;
9270;SDS011;4673;53.458;9.940;2024-02-26T04:28:47;11.20;;;11.10;;
9270;SDS011;4673;53.458;9.940;2024-02-26T04:31:12;9.57;;;9.57;;
9270;SDS011;4673;53.458;9.940;2024-02-26T04:33:38;9.53;;;9.53;;
9270;SDS011;4673;53.458;9.940;2024-02-26T04:36:04;10.17;;;10.17;;
9270;SDS011;4673;53.458;9.940;2024-02-26T04:38:30;11.17;;;11.07;;
9270;SDS011;4673;53.458;9.940;2024-02-26T04:40:55;10.13;;;10.13;;
9270;SDS011;4673;53.458;9.940;2024-02-26T04:43:21;10.03;;;10.03;;
9270;SDS011;4673;53.458;9.940;2024-02-26T04:45:46;9.57;;;9.57;;
9270;SDS011;4673;53.458;9.940;2024-02-26T04:48:13;9.37;;;9.37;;
9270;SDS011;4673;53.458;9.940;2024-02-26T04:50:38;10.07;;;10.07;;
9270;SDS011;4673;53.458;9.940;2024-02-26T04:53:04;10.47;;;10.47;;
9270;SDS011;4673;53.458;9.940;2024-02-26T04:55:30;10.03;;;10.03;;
9270;SDS011;4673;53.458;9.940;2024-02-26T04:57:55;10.47;;;10.47;;
9270;SDS011;4673;53.458;9.940;2024-02-26T05:00:21;12.00;;;11.93;;
9270;SDS011;4673;53.458;9.940;2024-02-26T05:02:46;10.73;;;10.73;;
9270;SDS011;4673;53.458;9.940;2024-02-26T05:05:12;10.13;;;10.13;;
9270;SDS011;4673;53.458;9.940;2024-02-26T05:07:41;9.70;;;9.70;;
9270;SDS011;4673;53.458;9.940;2024-02-26T05:10:08;11.20;;;11.20;;
9270;SDS011;4673;53.458;9.940;2024-02-26T05:12:34;10.50;;;10.50;;
9270;SDS011;4673;53.458;9.940;2024-02-26T05:15:01;9.53;;;9.53;;
9270;SDS011;4673;53.458;9.940;2024-02-26T05:17:27;10.80;;;10.77;;
9270;SDS011;4673;53.458;9.940;2024-02-26T05:19:53;10.03;;;10.03;;
9270;SDS011;4673;53.458;9.940;2024-02-26T05:22:19;10.67;;;10.63;;
9270;SDS011;4673;53.458;9.940;2024-02-26T05:24:44;9.67;;;9.67;;
9270;SDS011;4673;53.458;9.940;2024-02-26T05:27:10;9.10;;;9.10;;
9270;SDS011;4673;53.458;9.940;2024-02-26T05:29:37;9.93;;;9.93;;
9270;SDS011;4673;53.458;9.940;2024-02-26T05:32:03;8.70;;;8.70;;
9270;SDS011;4673;53.458;9.940;2024-02-26T05:34:29;8.57;;;8.57;;
9270;SDS011;4673;53.458;9.940;2024-02-26T05:36:55;8.80;;;8.80;;
9270;SDS011;4673;53.458;9.940;2024-02-26T05:39:21;9.17;;;9.17;;
9270;SDS011;4673;53.458;9.940;2024-02-26T05:41:46;9.00;;;9.00;;
9270;SDS011;4673;53.458;9.940;2024-02-26T05:44:12;9.13;;;9.13;;
9270;SDS011;4673;53.458;9.940;2024-02-26T05:46:38;8.57;;;8.57;;
9270;SDS011;4673;53.458;9.940;2024-02-26T05:49:04;10.60;;;10.60;;
9270;SDS011;4673;53.458;9.940;2024-02-26T05:51:29;9.93;;;9.93;;
9270;SDS011;4673;53.458;9.940;2024-02-26T05:53:55;10.17;;;10.17;;
9270;SDS011;4673;53.458;9.940;2024-02-26T05:56:23;8.93;;;8.93;;
9270;SDS011;4673;53.458;9.940;2024-02-26T05:58:49;10.00;;;10.00;;
9270;SDS011;4673;53.458;9.940;2024-02-26T06:01:16;9.07;;;9.07;;
9270;SDS011;4673;53.458;9.940;2024-02-26T06:03:42;8.80;;;8.80;;
9270;SDS011;4673;53.458;9.940;2024-02-26T06:06:08;8.70;;;8.70;;
9270;SDS011;4673;53.458;9.940;2024-02-26T06:08:35;9.50;;;9.50;;
9270;SDS011;4673;53.458;9.940;2024-02-26T06:11:04;9.20;;;9.20;;
9270;SDS011;4673;53.458;9.940;2024-02-26T06:13:33;9.83;;;9.83;;
9270;SDS011;4673;53.458;9.940;2024-02-26T06:15:59;10.10;;;10.10;;
9270;SDS011;4673;53.458;9.940;2024-02-26T06:18:25;9.60;;;9.60;;
9270;SDS011;4673;53.458;9.940;2024-02-26T06:20:51;9.13;;;9.13;;
9270;SDS011;4673;53.458;9.940;2024-02-26T06:23:16;9.73;;;9.73;;
9270;SDS011;4673;53.458;9.940;2024-02-26T06:25:42;8.80;;;8.80;;
9270;SDS011;4673;53.458;9.940;2024-02-26T06:28:08;10.10;;;10.10;;
9270;SDS011;4673;53.458;9.940;2024-02-26T06:30:34;8.27;;;8.27;;
9270;SDS011;4673;53.458;9.940;2024-02-26T06:33:02;8.87;;;8.87;;
9270;SDS011;4673;53.458;9.940;2024-02-26T06:35:28;8.67;;;8.67;;
9270;SDS011;4673;53.458;9.940;2024-02-26T06:37:53;8.30;;;8.30;;
9270;SDS011;4673;53.458;9.940;2024-02-26T06:40:19;8.60;;;8.60;;
9270;SDS011;4673;53.458;9.940;2024-02-26T06:42:45;7.93;;;7.93;;
9270;SDS011;4673;53.458;9.940;2024-02-26T06:45:11;8.53;;;8.53;;
9270;SDS011;4673;53.458;9.940;2024-02-26T06:47:37;8.50;;;8.50;;
9270;SDS011;4673;53.458;9.940;2024-02-26T06:50:02;8.13;;;8.13;;
9270;SDS011;4673;53.458;9.940;2024-02-26T06:52:28;8.90;;;8.90;;
9270;SDS011;4673;53.458;9.940;2024-02-26T06:54:54;8.03;;;8.03;;
9270;SDS011;4673;53.458;9.940;2024-02-26T06:57:20;8.77;;;8.77;;
9270;SDS011;4673;53.458;9.940;2024-02-26T06:59:45;9.03;;;9.03;;
9270;SDS011;4673;53.458;9.940;2024-02-26T07:02:15;8.90;;;8.90;;
9270;SDS011;4673;53.458;9.940;2024-02-26T07:04:41;8.30;;;8.30;;
9270;SDS011;4673;53.458;9.940;2024-02-26T07:07:07;8.70;;;8.70;;
9270;SDS011;4673;53.458;9.940;2024-02-26T07:09:33;7.63;;;7.63;;
9270;SDS011;4673;53.458;9.940;2024-02-26T07:11:59;8.07;;;8.07;;
9270;SDS011;4673;53.458;9.940;2024-02-26T07:14:25;9.10;;;9.07;;
9270;SDS011;4673;53.458;9.940;2024-02-26T07:16:50;9.37;;;9.37;;
9270;SDS011;4673;53.458;9.940;2024-02-26T07:19:16;9.80;;;9.80;;
9270;SDS011;4673;53.458;9.940;2024-02-26T07:21:42;9.57;;;9.57;;
9270;SDS011;4673;53.458;9.940;2024-02-26T07:24:08;9.93;;;9.93;;
9270;SDS011;4673;53.458;9.940;2024-02-26T07:26:33;9.73;;;9.73;;
9270;SDS011;4673;53.458;9.940;2024-02-26T07:28:59;9.80;;;9.80;;
9270;SDS011;4673;53.458;9.940;2024-02-26T07:31:25;10.73;;;10.73;;
9270;SDS011;4673;53.458;9.940;2024-02-26T07:33:51;11.00;;;10.93;;
9270;SDS011;4673;53.458;9.940;2024-02-26T07:36:16;10.80;;;10.80;;
9270;SDS011;4673;53.458;9.940;2024-02-26T07:38:42;9.90;;;9.90;;
9270;SDS011;4673;53.458;9.940;2024-02-26T07:41:08;10.00;;;10.00;;
9270;SDS011;4673;53.458;9.940;2024-02-26T07:43:34;10.63;;;10.53;;
9270;SDS011;4673;53.458;9.940;2024-02-26T07:45:59;9.90;;;9.90;;
9270;SDS011;4673;53.458;9.940;2024-02-26T07:48:25;10.40;;;10.40;;
9270;SDS011;4673;53.458;9.940;2024-02-26T07:50:51;10.27;;;10.17;;
9270;SDS011;4673;53.458;9.940;2024-02-26T07:53:17;10.83;;;10.83;;
9270;SDS011;4673;53.458;9.940;2024-02-26T07:55:42;10.00;;;10.00;;
9270;SDS011;4673;53.458;9.940;2024-02-26T07:58:08;10.83;;;10.83;;
9270;SDS011;4673;53.458;9.940;2024-02-26T08:00:34;10.60;;;10.50;;
9270;SDS011;4673;53.458;9.940;2024-02-26T08:02:59;11.93;;;11.90;;
9270;SDS011;4673;53.458;9.940;2024-02-26T08:05:25;11.03;;;11.03;;
9270;SDS011;4673;53.458;9.940;2024-02-26T08:07:51;11.03;;;11.03;;
9270;SDS011;4673;53.458;9.940;2024-02-26T08:10:17;11.23;;;11.23;;
9270;SDS011;4673;53.458;9.940;2024-02-26T08:12:42;11.77;;;11.77;;
9270;SDS011;4673;53.458;9.940;2024-02-26T08:15:09;11.20;;;11.20;;
9270;SDS011;4673;53.458;9.940;2024-02-26T08:17:36;12.00;;;12.00;;
9270;SDS011;4673;53.458;9.940;2024-02-26T08:20:02;10.60;;;10.57;;
9270;SDS011;4673;53.458;9.940;2024-02-26T08:22:28;12.00;;;12.00;;
9270;SDS011;4673;53.458;9.940;2024-02-26T08:24:53;11.70;;;11.70;;
9270;SDS011;4673;53.458;9.940;2024-02-26T08:27:19;12.60;;;12.57;;
9270;SDS011;4673;53.458;9.940;2024-02-26T08:29:45;11.10;;;11.10;;
9270;SDS011;4673;53.458;9.940;2024-02-26T08:32:10;12.50;;;12.50;;
9270;SDS011;4673;53.458;9.940;2024-02-26T08:34:36;10.80;;;10.80;;
9270;SDS011;4673;53.458;9.940;2024-02-26T08:37:02;10.57;;;10.57;;
9270;SDS011;4673;53.458;9.940;2024-02-26T08:39:28;11.87;;;11.87;;
9270;SDS011;4673;53.458;9.940;2024-02-26T08:41:54;11.77;;;11.77;;
9270;SDS011;4673;53.458;9.940;2024-02-26T08:44:19;12.40;;;12.37;;
9270;SDS011;4673;53.458;9.940;2024-02-26T08:46:45;13.13;;;13.03;;
9270;SDS011;4673;53.458;9.940;2024-02-26T08:49:11;12.80;;;12.77;;
9270;SDS011;4673;53.458;9.940;2024-02-26T08:51:41;13.00;;;12.93;;
9270;SDS011;4673;53.458;9.940;2024-02-26T08:54:08;11.87;;;11.87;;
9270;SDS011;4673;53.458;9.940;2024-02-26T08:56:33;11.27;;;11.27;;
9270;SDS011;4673;53.458;9.940;2024-02-26T08:58:59;11.60;;;11.60;;
9270;SDS011;4673;53.458;9.940;2024-02-26T09:01:28;10.90;;;10.90;;
9270;SDS011;4673;53.458;9.940;2024-02-26T09:03:58;11.20;;;11.10;;
9270;SDS011;4673;53.458;9.940;2024-02-26T09:06:24;10.90;;;10.80;;
9270;SDS011;4673;53.458;9.940;2024-02-26T09:08:49;10.70;;;10.70;;
9270;SDS011;4673;53.458;9.940;2024-02-26T09:11:15;10.73;;;10.73;;
9270;SDS011;4673;53.458;9.940;2024-02-26T09:13:41;11.43;;;11.43;;
9270;SDS011;4673;53.458;9.940;2024-02-26T09:16:07;11.33;;;11.33;;
9270;SDS011;4673;53.458;9.940;2024-02-26T09:18:33;11.13;;;11.13;;
9270;SDS011;4673;53.458;9.940;2024-02-26T09:20:58;11.27;;;11.27;;
9270;SDS011;4673;53.458;9.940;2024-02-26T09:23:24;10.70;;;10.70;;
9270;SDS011;4673;53.458;9.940;2024-02-26T09:25:50;11.00;;;11.00;;
9270;SDS011;4673;53.458;9.940;2024-02-26T09:28:15;11.60;;;11.50;;
9270;SDS011;4673;53.458;9.940;2024-02-26T09:30:42;12.27;;;12.27;;
9270;SDS011;4673;53.458;9.940;2024-02-26T09:33:11;11.50;;;11.50;;
9270;SDS011;4673;53.458;9.940;2024-02-26T09:35:38;9.87;;;9.87;;
9270;SDS011;4673;53.458;9.940;2024-02-26T09:38:04;13.00;;;12.90;;
9270;SDS011;4673;53.458;9.940;2024-02-26T09:40:29;12.17;;;12.17;;
9270;SDS011;4673;53.458;9.940;2024-02-26T09:42:58;12.80;;;12.80;;
9270;SDS011;4673;53.458;9.940;2024-02-26T09:45:25;12.23;;;12.13;;
9270;SDS011;4673;53.458;9.940;2024-02-26T09:47:52;12.17;;;12.17;;
9270;SDS011;4673;53.458;9.940;2024-02-26T09:50:21;11.60;;;11.60;;
9270;SDS011;4673;53.458;9.940;2024-02-26T09:52:47;11.23;;;11.23;;
9270;SDS011;4673;53.458;9.940;2024-02-26T09:55:14;10.50;;;10.50;;
9270;SDS011;4673;53.458;9.940;2024-02-26T09:57:44;10.87;;;10.87;;
9270;SDS011;4673;53.458;9.940;2024-02-26T10:00:14;11.37;;;11.37;;
9270;SDS011;4673;53.458;9.940;2024-02-26T10:02:44;10.93;;;10.83;;
9270;SDS011;4673;53.458;9.940;2024-02-26T10:05:12;11.67;;;11.67;;
9270;SDS011;4673;53.458;9.940;2024-02-26T10:07:42;10.93;;;10.93;;
9270;SDS011;4673;53.458;9.940;2024-02-26T10:10:09;11.67;;;11.67;;
9270;SDS011;4673;53.458;9.940;2024-02-26T10:12:34;11.90;;;11.90;;
9270;SDS011;4673;53.458;9.940;2024-02-26T10:15:00;12.17;;;12.17;;
9270;SDS011;4673;53.458;9.940;2024-02-26T10:17:26;12.67;;;12.67;;
9270;SDS011;4673;53.458;9.940;2024-02-26T10:19:52;12.67;;;12.67;;
9270;SDS011;4673;53.458;9.940;2024-02-26T10:22:21;12.37;;;12.37;;
9270;SDS011;4673;53.458;9.940;2024-02-26T10:24:47;12.93;;;12.93;;
9270;SDS011;4673;53.458;9.940;2024-02-26T10:27:13;11.97;;;11.97;;
9270;SDS011;4673;53.458;9.940;2024-02-26T10:29:40;12.07;;;12.07;;
9270;SDS011;4673;53.458;9.940;2024-02-26T10:32:08;13.17;;;13.07;;
9270;SDS011;4673;53.458;9.940;2024-02-26T10:34:34;12.47;;;12.47;;
9270;SDS011;4673;53.458;9.940;2024-02-26T10:37:02;13.50;;;13.50;;
9270;SDS011;4673;53.458;9.940;2024-02-26T10:39:29;12.27;;;12.27;;
9270;SDS011;4673;53.458;9.940;2024-02-26T10:41:55;14.70;;;14.70;;
9270;SDS011;4673;53.458;9.940;2024-02-26T10:44:21;12.30;;;12.30;;
9270;SDS011;4673;53.458;9.940;2024-02-26T10:46:47;11.97;;;11.97;;
9270;SDS011;4673;53.458;9.940;2024-02-26T10:49:14;13.70;;;13.70;;
9270;SDS011;4673;53.458;9.940;2024-02-26T10:51:45;13.23;;;13.23;;
9270;SDS011;4673;53.458;9.940;2024-02-26T10:54:15;12.13;;;12.03;;
9270;SDS011;4673;53.458;9.940;2024-02-26T10:56:41;12.27;;;12.27;;
9270;SDS011;4673;53.458;9.940;2024-02-26T10:59:09;11.87;;;11.77;;
9270;SDS011;4673;53.458;9.940;2024-02-26T11:01:35;10.83;;;10.83;;
9270;SDS011;4673;53.458;9.940;2024-02-26T11:04:06;11.90;;;11.90;;
9270;SDS011;4673;53.458;9.940;2024-02-26T11:06:33;11.83;;;11.83;;
9270;SDS011;4673;53.458;9.940;2024-02-26T11:09:00;11.60;;;11.50;;
9270;SDS011;4673;53.458;9.940;2024-02-26T11:11:27;11.33;;;11.33;;
9270;SDS011;4673;53.458;9.940;2024-02-26T11:13:54;11.13;;;11.13;;
9270;SDS011;4673;53.458;9.940;2024-02-26T11:16:22;10.00;;;10.00;;
9270;SDS011;4673;53.458;9.940;2024-02-26T11:18:48;8.63;;;8.63;;
9270;SDS011;4673;53.458;9.940;2024-02-26T11:21:17;9.73;;;9.73;;
9270;SDS011;4673;53.458;9.940;2024-02-26T11:23:47;8.80;;;8.80;;
9270;SDS011;4673;53.458;9.940;2024-02-26T11:26:13;8.13;;;8.13;;
9270;SDS011;4673;53.458;9.940;2024-02-26T11:28:41;8.97;;;8.97;;
9270;SDS011;4673;53.458;9.940;2024-02-26T11:31:08;8.33;;;8.33;;
9270;SDS011;4673;53.458;9.940;2024-02-26T11:33:35;8.20;;;8.20;;
9270;SDS011;4673;53.458;9.940;2024-02-26T11:36:01;7.83;;;7.83;;
9270;SDS011;4673;53.458;9.940;2024-02-26T11:38:32;9.73;;;9.63;;
9270;SDS011;4673;53.458;9.940;2024-02-26T11:40:58;8.97;;;8.97;;
9270;SDS011;4673;53.458;9.940;2024-02-26T11:51:55;8.93;;;8.93;;
9270;SDS011;4673;53.458;9.940;2024-02-26T12:07:54;10.87;;;10.77;;
9270;SDS011;4673;53.458;9.940;2024-02-26T12:10:28;9.20;;;9.20;;
9270;SDS011;4673;53.458;9.940;2024-02-26T12:15:33;10.13;;;10.13;;
9270;SDS011;4673;53.458;9.940;2024-02-26T12:18:03;9.50;;;9.40;;
9270;SDS011;4673;53.458;9.940;2024-02-26T12:20:30;11.07;;;11.07;;
9270;SDS011;4673;53.458;9.940;2024-02-26T12:22:57;10.77;;;10.67;;
9270;SDS011;4673;53.458;9.940;2024-02-26T12:25:27;10.33;;;10.33;;
9270;SDS011;4673;53.458;9.940;2024-02-26T12:27:54;9.83;;;9.83;;
9270;SDS011;4673;53.458;9.940;2024-02-26T12:30:20;9.70;;;9.70;;
9270;SDS011;4673;53.458;9.940;2024-02-26T12:32:47;9.97;;;9.97;;
9270;SDS011;4673;53.458;9.940;2024-02-26T12:35:14;10.43;;;10.37;;
9270;SDS011;4673;53.458;9.940;2024-02-26T12:37:41;10.30;;;10.30;;
9270;SDS011;4673;53.458;9.940;2024-02-26T12:40:08;8.97;;;8.97;;
9270;SDS011;4673;53.458;9.940;2024-02-26T12:42:38;8.43;;;8.43;;
9270;SDS011;4673;53.458;9.940;2024-02-26T12:45:05;8.77;;;8.77;;
9270;SDS011;4673;53.458;9.940;2024-02-26T12:47:36;9.60;;;9.60;;
9270;SDS011;4673;53.458;9.940;2024-02-26T12:50:06;9.07;;;9.07;;
9270;SDS011;4673;53.458;9.940;2024-02-26T12:52:33;9.53;;;9.53;;
9270;SDS011;4673;53.458;9.940;2024-02-26T12:55:03;8.70;;;8.70;;
9270;SDS011;4673;53.458;9.940;2024-02-26T12:57:31;10.00;;;9.90;;
9270;SDS011;4673;53.458;9.940;2024-02-26T12:59:58;9.73;;;9.73;;
9270;SDS011;4673;53.458;9.940;2024-02-26T13:02:25;8.97;;;8.97;;
9270;SDS011;4673;53.458;9.940;2024-02-26T13:04:51;9.00;;;9.00;;
9270;SDS011;4673;53.458;9.940;2024-02-26T13:07:18;9.37;;;9.37;;
9270;SDS011;4673;53.458;9.940;2024-02-26T13:09:45;9.50;;;9.50;;
9270;SDS011;4673;53.458;9.940;2024-02-26T13:12:11;8.83;;;8.83;;
9270;SDS011;4673;53.458;9.940;2024-02-26T13:14:38;8.83;;;8.83;;
9270;SDS011;4673;53.458;9.940;2024-02-26T13:17:04;9.03;;;8.93;;
9270;SDS011;4673;53.458;9.940;2024-02-26T13:19:30;7.80;;;7.80;;
9270;SDS011;4673;53.458;9.940;2024-02-26T13:21:56;7.97;;;7.97;;
9270;SDS011;4673;53.458;9.940;2024-02-26T13:24:29;7.67;;;7.67;;
9270;SDS011;4673;53.458;9.940;2024-02-26T13:26:56;7.60;;;7.60;;
9270;SDS011;4673;53.458;9.940;2024-02-26T13:29:22;8.00;;;8.00;;
9270;SDS011;4673;53.458;9.940;2024-02-26T13:31:53;8.60;;;8.60;;
9270;SDS011;4673;53.458;9.940;2024-02-26T13:34:25;9.47;;;9.47;;
9270;SDS011;4673;53.458;9.940;2024-02-26T13:36:52;11.27;;;11.27;;
9270;SDS011;4673;53.458;9.940;2024-02-26T13:39:25;8.90;;;8.90;;
9270;SDS011;4673;53.458;9.940;2024-02-26T13:41:52;9.43;;;9.43;;
9270;SDS011;4673;53.458;9.940;2024-02-26T13:44:21;9.90;;;9.90;;
9270;SDS011;4673;53.458;9.940;2024-02-26T13:46:47;9.30;;;9.30;;
9270;SDS011;4673;53.458;9.940;2024-02-26T13:49:15;10.93;;;10.93;;
9270;SDS011;4673;53.458;9.940;2024-02-26T13:51:41;9.23;;;9.23;;
9270;SDS011;4673;53.458;9.940;2024-02-26T13:54:07;10.27;;;10.27;;
9270;SDS011;4673;53.458;9.940;2024-02-26T13:56:34;8.97;;;8.97;;
9270;SDS011;4673;53.458;9.940;2024-02-26T13:59:00;9.40;;;9.40;;
9270;SDS011;4673;53.458;9.940;2024-02-26T14:01:25;8.70;;;8.70;;
9270;SDS011;4673;53.458;9.940;2024-02-26T14:03:51;8.97;;;8.97;;
9270;SDS011;4673;53.458;9.940;2024-02-26T14:06:20;8.70;;;8.70;;
9270;SDS011;4673;53.458;9.940;2024-02-26T14:08:45;7.77;;;7.77;;
9270;SDS011;4673;53.458;9.940;2024-02-26T14:11:11;6.47;;;6.47;;
9270;SDS011;4673;53.458;9.940;2024-02-26T14:13:37;8.10;;;8.10;;
9270;SDS011;4673;53.458;9.940;2024-02-26T14:16:02;8.87;;;8.87;;
9270;SDS011;4673;53.458;9.940;2024-02-26T14:18:28;8.20;;;8.20;;
9270;SDS011;4673;53.458;9.940;2024-02-26T14:20:54;8.43;;;8.43;;
9270;SDS011;4673;53.458;9.940;2024-02-26T14:23:20;8.87;;;8.87;;
9270;SDS011;4673;53.458;9.940;2024-02-26T14:25:45;7.27;;;7.27;;
9270;SDS011;4673;53.458;9.940;2024-02-26T14:28:11;8.67;;;8.67;;
9270;SDS011;4673;53.458;9.940;2024-02-26T14:30:36;8.20;;;8.20;;
9270;SDS011;4673;53.458;9.940;2024-02-26T14:33:02;9.03;;;9.03;;
9270;SDS011;4673;53.458;9.940;2024-02-26T14:35:28;7.93;;;7.93;;
9270;SDS011;4673;53.458;9.940;2024-02-26T14:37:53;9.20;;;9.20;;
9270;SDS011;4673;53.458;9.940;2024-02-26T14:40:20;8.43;;;8.43;;
9270;SDS011;4673;53.458;9.940;2024-02-26T14:42:46;8.30;;;8.30;;
9270;SDS011;4673;53.458;9.940;2024-02-26T14:45:11;7.77;;;7.77;;
9270;SDS011;4673;53.458;9.940;2024-02-26T14:47:37;9.07;;;9.07;;
9270;SDS011;4673;53.458;9.940;2024-02-26T14:50:03;8.27;;;8.27;;
9270;SDS011;4673;53.458;9.940;2024-02-26T14:52:29;8.60;;;8.60;;
9270;SDS011;4673;53.458;9.940;2024-02-26T14:54:55;9.03;;;9.03;;
9270;SDS011;4673;53.458;9.940;2024-02-26T14:57:22;8.07;;;8.07;;
9270;SDS011;4673;53.458;9.940;2024-02-26T14:59:49;9.13;;;9.13;;
9270;SDS011;4673;53.458;9.940;2024-02-26T15:02:15;8.97;;;8.97;;
9270;SDS011;4673;53.458;9.940;2024-02-26T15:04:45;9.07;;;9.07;;
9270;SDS011;4673;53.458;9.940;2024-02-26T15:07:11;9.93;;;9.93;;
9270;SDS011;4673;53.458;9.940;2024-02-26T15:09:37;9.27;;;9.27;;
9270;SDS011;4673;53.458;9.940;2024-02-26T15:12:05;8.27;;;8.27;;
9270;SDS011;4673;53.458;9.940;2024-02-26T15:14:34;9.30;;;9.30;;
9270;SDS011;4673;53.458;9.940;2024-02-26T15:17:00;7.97;;;7.97;;
9270;SDS011;4673;53.458;9.940;2024-02-26T15:19:26;9.37;;;9.37;;
9270;SDS011;4673;53.458;9.940;2024-02-26T15:21:51;9.87;;;9.87;;
9270;SDS011;4673;53.458;9.940;2024-02-26T15:24:17;9.70;;;9.70;;